createdAt,value
2018-05-13T00:36:12.164Z,19.10
2018-05-13T00:38:38.108Z,19.00
2018-05-13T00:41:04.192Z,19.10
2018-05-13T00:43:30.186Z,19.00
2018-05-13T00:45:56.123Z,19.00
2018-05-13T00:48:22.202Z,19.00
2018-05-13T00:50:48.158Z,19.00
2018-05-13T00:53:14.139Z,19.10
2018-05-13T00:55:40.881Z,19.10
2018-05-13T00:58:06.878Z,19.10
2018-05-13T01:00:32.896Z,19.10
2018-05-13T01:02:58.977Z,19.10
2018-05-13T01:05:24.923Z,19.00
2018-05-13T01:07:50.873Z,19.10
2018-05-13T01:10:17.583Z,18.70
2018-05-13T01:12:43.533Z,18.70
2018-05-13T01:15:09.495Z,18.70
2018-05-13T01:17:36.223Z,18.40
2018-05-13T01:20:02.221Z,18.40
2018-05-13T01:22:28.178Z,18.40
2018-05-13T01:24:54.153Z,18.30
2018-05-13T01:27:20.835Z,18.40
2018-05-13T01:29:46.777Z,18.40
2018-05-13T01:32:12.761Z,18.30
2018-05-13T01:34:38.707Z,18.20
2018-05-13T01:37:05.447Z,18.10
2018-05-13T01:39:31.487Z,18.20
2018-05-13T01:41:58.410Z,18.10
2018-05-13T01:44:24.375Z,18.10
2018-05-13T01:46:50.353Z,18.00
2018-05-13T01:49:16.315Z,17.90
2018-05-13T01:51:42.273Z,17.80
2018-05-13T01:54:08.342Z,17.70
2018-05-13T01:56:35.067Z,17.60
2018-05-13T01:59:01.094Z,17.60
2018-05-13T02:01:27.064Z,17.50
2018-05-13T02:03:53.770Z,17.40
2018-05-13T02:06:19.731Z,17.40
2018-05-13T02:08:45.852Z,17.30
2018-05-13T02:11:11.808Z,17.40
2018-05-13T02:13:37.779Z,17.30
2018-05-13T02:16:03.847Z,17.40
2018-05-13T02:18:29.812Z,17.40
2018-05-13T02:20:55.786Z,17.30
2018-05-13T02:23:22.356Z,17.30
2018-05-13T02:25:48.311Z,17.30
2018-05-13T02:28:14.483Z,17.30
2018-05-13T02:30:41.233Z,17.30
2018-05-13T02:33:07.205Z,17.30
2018-05-13T02:35:33.196Z,17.30
2018-05-13T02:37:59.183Z,17.20
2018-05-13T02:40:25.151Z,17.20
2018-05-13T02:42:51.115Z,17.20
2018-05-13T02:45:17.835Z,17.10
2018-05-13T02:47:43.813Z,17.20
2018-05-13T02:50:10.532Z,17.10
2018-05-13T02:52:36.756Z,17.10
2018-05-13T02:55:02.741Z,17.00
2018-05-13T02:57:29.448Z,17.20
2018-05-13T02:59:55.976Z,17.10
2018-05-13T03:02:21.931Z,17.20
2018-05-13T03:04:47.899Z,17.30
2018-05-13T03:07:14.697Z,17.40
2018-05-13T03:09:40.605Z,17.40
2018-05-13T03:12:07.441Z,17.50
2018-05-13T03:14:34.099Z,17.60
2018-05-13T03:17:00.827Z,17.60
2018-05-13T03:19:26.787Z,17.60
2018-05-13T03:21:53.755Z,17.50
2018-05-13T03:24:20.451Z,17.60
2018-05-13T03:26:46.403Z,17.50
2018-05-13T03:29:12.385Z,17.60
2018-05-13T03:31:38.359Z,17.60
2018-05-13T03:34:04.347Z,17.80
2018-05-13T03:36:31.186Z,18.10
2018-05-13T03:38:57.892Z,18.20
2018-05-13T03:41:23.876Z,18.20
2018-05-13T03:43:50.595Z,18.30
2018-05-13T03:46:16.551Z,18.40
2018-05-13T03:48:42.525Z,18.30
2018-05-13T03:51:09.140Z,18.30
2018-05-13T03:53:35.119Z,18.20
2018-05-13T03:56:01.128Z,18.20
2018-05-13T03:58:27.863Z,18.20
2018-05-13T04:00:53.829Z,18.20
2018-05-13T04:03:19.796Z,18.20
2018-05-13T04:05:45.775Z,18.10
2018-05-13T04:11:34.284Z,18.10
2018-05-13T04:14:13.468Z,18.10
2018-05-13T04:16:39.466Z,18.10
2018-05-13T04:19:06.200Z,18.00
2018-05-13T04:21:32.183Z,18.00
2018-05-13T04:23:58.208Z,18.10
2018-05-13T04:26:24.179Z,18.00
2018-05-13T04:28:50.147Z,17.90
2018-05-13T04:31:16.138Z,17.90
2018-05-13T04:33:42.099Z,18.00
2018-05-13T04:36:08.083Z,17.90
2018-05-13T04:38:34.153Z,18.00
2018-05-13T04:41:00.114Z,18.00
2018-05-13T04:43:26.092Z,18.10
2018-05-13T04:45:52.296Z,18.20
2018-05-13T04:48:18.259Z,18.30
2018-05-13T04:50:45.363Z,18.70
2018-05-13T04:53:11.379Z,18.70
2018-05-13T04:55:37.368Z,18.80
2018-05-13T04:58:03.348Z,18.80
2018-05-13T05:00:29.339Z,18.90
2018-05-13T05:02:55.319Z,19.00
2018-05-13T05:05:21.288Z,19.10
2018-05-13T05:07:47.444Z,19.00
2018-05-13T05:10:13.415Z,19.20
2018-05-13T05:12:39.698Z,19.20
2018-05-13T05:15:05.751Z,19.30
2018-05-13T05:17:31.773Z,19.30
2018-05-13T05:19:57.775Z,19.40
2018-05-13T05:22:23.844Z,19.40
2018-05-13T05:24:49.823Z,19.40
2018-05-13T05:27:16.527Z,19.20
2018-05-13T05:29:42.537Z,19.20
2018-05-13T05:32:08.511Z,19.10
2018-05-13T05:34:34.531Z,19.20
2018-05-13T05:37:00.789Z,19.30
2018-05-13T05:39:26.768Z,19.40
2018-05-13T05:41:53.772Z,19.50
2018-05-13T05:44:19.944Z,19.50
2018-05-13T05:46:45.909Z,19.60
2018-05-13T05:49:12.766Z,20.10
2018-05-13T05:51:39.587Z,20.30
2018-05-13T05:54:05.579Z,20.20
2018-05-13T05:56:31.576Z,20.40
2018-05-13T05:58:58.293Z,20.70
2018-05-13T06:01:24.283Z,20.60
2018-05-13T06:03:50.987Z,20.40
2018-05-13T06:06:16.991Z,20.40
2018-05-13T06:08:42.955Z,20.20
2018-05-13T06:11:09.186Z,20.10
2018-05-13T06:13:35.199Z,20.10
2018-05-13T06:16:01.184Z,20.30
2018-05-13T06:18:27.396Z,20.20
2018-05-13T06:20:53.759Z,19.90
2018-05-13T06:23:19.727Z,19.80
2018-05-13T06:25:45.693Z,19.60
2018-05-13T06:28:11.711Z,19.60
2018-05-13T06:30:38.419Z,19.80
2018-05-13T06:33:04.412Z,19.80
2018-05-13T06:35:30.496Z,20.10
2018-05-13T06:37:56.464Z,20.10
2018-05-13T06:40:23.171Z,20.40
2018-05-13T06:42:49.319Z,20.40
2018-05-13T06:45:15.313Z,20.40
2018-05-13T06:47:41.991Z,20.90
2018-05-13T06:50:08.334Z,20.90
2018-05-13T06:52:34.340Z,21.30
2018-05-13T06:55:00.319Z,21.20
2018-05-13T06:57:26.302Z,21.40
2018-05-13T06:59:52.263Z,21.60
2018-05-13T07:02:18.219Z,21.70
2018-05-13T07:04:44.575Z,21.80
2018-05-13T07:07:10.544Z,21.80
2018-05-13T07:09:37.262Z,21.90
2018-05-13T07:12:03.308Z,21.80
2018-05-13T07:14:29.268Z,21.70
2018-05-13T07:16:55.975Z,21.60
2018-05-13T07:19:21.947Z,21.60
2018-05-13T07:21:48.660Z,21.40
2018-05-13T07:24:14.627Z,21.30
2018-05-13T07:26:46.796Z,21.10
2018-05-13T07:29:12.858Z,20.90
2018-05-13T07:31:38.755Z,20.60
2018-05-13T07:34:04.773Z,20.50
2018-05-13T07:36:30.755Z,20.30
2018-05-13T07:38:57.054Z,20.30
2018-05-13T07:41:23.047Z,20.20
2018-05-13T07:43:49.750Z,20.40
2018-05-13T07:46:15.707Z,20.40
2018-05-13T07:48:41.716Z,20.40
2018-05-13T07:51:07.999Z,20.60
2018-05-13T07:53:34.008Z,20.80
2018-05-13T07:56:00.017Z,21.20
2018-05-13T07:58:25.979Z,21.50
2018-05-13T08:00:51.943Z,21.70
2018-05-13T08:03:17.959Z,21.60
2018-05-13T08:05:43.927Z,22.00
2018-05-13T08:08:10.648Z,23.90
2018-05-13T08:10:37.116Z,23.80
2018-05-13T08:13:03.855Z,26.10
2018-05-13T08:15:29.828Z,26.10
2018-05-13T08:17:55.825Z,25.60
2018-05-13T08:20:21.882Z,27.80
2018-05-13T08:22:48.491Z,28.50
2018-05-13T08:25:14.665Z,28.40
2018-05-13T08:27:41.373Z,28.60
2018-05-13T08:30:07.396Z,28.60
2018-05-13T08:32:33.461Z,27.90
2018-05-13T08:34:59.427Z,27.80
2018-05-13T08:37:26.144Z,26.00
2018-05-13T08:39:52.324Z,25.90
2018-05-13T08:42:19.048Z,27.70
2018-05-13T08:44:45.017Z,27.70
2018-05-13T08:47:11.763Z,27.20
2018-05-13T08:49:38.476Z,26.30
2018-05-13T08:52:04.535Z,26.20
2018-05-13T08:54:30.567Z,25.70
2018-05-13T08:56:56.544Z,25.70
2018-05-13T08:59:22.515Z,25.20
2018-05-13T09:01:48.511Z,25.50
2018-05-13T09:04:14.491Z,25.80
2018-05-13T09:06:40.468Z,26.50
2018-05-13T09:09:07.227Z,25.70
2018-05-13T09:11:33.995Z,24.80
2018-05-13T09:13:59.968Z,24.80
2018-05-13T09:16:26.640Z,24.50
2018-05-13T09:18:52.716Z,25.10
2018-05-13T09:21:19.713Z,25.20
2018-05-13T09:23:45.731Z,25.20
2018-05-13T09:26:11.699Z,25.00
2018-05-13T09:28:37.697Z,24.30
2018-05-13T09:31:03.726Z,23.50
2018-05-13T09:33:29.703Z,23.20
2018-05-13T09:36:02.650Z,23.00
2018-05-13T09:38:29.411Z,22.50
2018-05-13T09:40:55.386Z,22.40
2018-05-13T09:43:21.369Z,22.20
2018-05-13T09:45:48.162Z,22.50
2018-05-13T09:48:14.091Z,22.40
2018-05-13T09:50:40.072Z,22.50
2018-05-13T09:53:06.218Z,22.50
2018-05-13T09:55:32.255Z,22.50
2018-05-13T09:57:58.214Z,23.20
2018-05-13T10:00:24.935Z,23.70
2018-05-13T10:02:50.899Z,23.70
2018-05-13T10:05:17.607Z,22.80
2018-05-13T10:07:43.591Z,22.80
2018-05-13T10:10:09.731Z,22.00
2018-05-13T10:12:37.351Z,21.40
2018-05-13T10:15:03.413Z,21.40
2018-05-13T10:17:29.393Z,21.10
2018-05-13T10:19:55.389Z,20.60
2018-05-13T10:22:21.395Z,20.10
2018-05-13T10:24:47.376Z,20.20
2018-05-13T10:27:14.090Z,20.10
2018-05-13T10:29:40.099Z,20.10
2018-05-13T10:32:06.171Z,19.70
2018-05-13T10:34:32.194Z,20.50
2018-05-13T10:36:58.223Z,21.10
2018-05-13T10:39:24.943Z,22.00
2018-05-13T10:41:50.903Z,22.10
2018-05-13T10:44:16.911Z,22.70
2018-05-13T10:46:42.887Z,22.40
2018-05-13T10:49:08.871Z,22.90
2018-05-13T10:51:35.629Z,23.30
2018-05-13T10:54:01.691Z,23.30
2018-05-13T10:56:27.663Z,22.60
2018-05-13T10:58:53.660Z,22.10
2018-05-13T11:01:19.627Z,22.20
2018-05-13T11:03:45.594Z,21.90
2018-05-13T11:06:12.531Z,21.10
2018-05-13T11:08:38.516Z,21.10
2018-05-13T11:11:04.534Z,21.10
2018-05-13T11:13:31.392Z,21.50
2018-05-13T11:15:57.563Z,21.50
2018-05-13T11:18:23.539Z,21.20
2018-05-13T11:20:49.581Z,21.40
2018-05-13T11:23:15.515Z,21.40
2018-05-13T11:25:41.489Z,21.40
2018-05-13T11:28:07.487Z,21.60
2018-05-13T11:30:33.803Z,21.50
2018-05-13T11:32:59.772Z,21.50
2018-05-13T11:35:26.527Z,21.50
2018-05-13T11:37:53.231Z,21.50
2018-05-13T11:40:19.215Z,21.50
2018-05-13T11:42:45.943Z,21.50
2018-05-13T11:45:11.916Z,21.50
2018-05-13T11:47:38.665Z,21.50
2018-05-13T11:50:06.017Z,21.50
2018-05-13T11:52:32.049Z,21.50
2018-05-13T11:54:58.020Z,21.10
2018-05-13T11:57:24.024Z,21.00
2018-05-13T11:59:50.227Z,21.10
2018-05-13T12:02:16.264Z,21.20
2018-05-13T12:04:42.207Z,21.20
2018-05-13T12:07:08.188Z,21.40
2018-05-13T12:09:34.968Z,21.30
2018-05-13T12:12:00.953Z,21.30
2018-05-13T12:14:27.176Z,21.60
2018-05-13T12:16:53.192Z,21.90
2018-05-13T12:19:19.167Z,22.00
2018-05-13T12:21:45.139Z,22.10
2018-05-13T12:24:11.119Z,21.70
2018-05-13T12:26:37.109Z,21.80
2018-05-13T12:29:03.187Z,21.50
2018-05-13T12:31:30.128Z,20.70
2018-05-13T12:33:56.139Z,20.60
2018-05-13T12:36:22.103Z,20.80
2018-05-13T12:38:48.065Z,21.00
2018-05-13T12:41:14.923Z,21.80
2018-05-13T12:43:40.892Z,21.80
2018-05-13T12:46:07.626Z,21.50
2018-05-13T12:48:33.869Z,21.50
2018-05-13T12:50:59.835Z,21.40
2018-05-13T12:53:25.824Z,21.30
2018-05-13T12:55:52.179Z,21.50
2018-05-13T12:58:18.357Z,21.60
2018-05-13T13:00:44.328Z,21.70
2018-05-13T13:03:10.355Z,21.80
2018-05-13T13:05:36.576Z,21.40
2018-05-13T13:08:02.583Z,21.50
2018-05-13T13:10:28.608Z,21.90
2018-05-13T13:12:54.591Z,21.80
2018-05-13T13:15:20.547Z,21.90
2018-05-13T13:17:46.539Z,22.00
2018-05-13T13:20:13.249Z,21.60
2018-05-13T13:22:39.250Z,21.70
2018-05-13T13:25:05.456Z,21.50
2018-05-13T13:27:32.213Z,22.10
2018-05-13T13:29:58.928Z,21.70
2018-05-13T13:32:24.913Z,21.60
2018-05-13T13:34:51.612Z,21.80
2018-05-13T13:37:17.627Z,21.80
2018-05-13T13:39:43.627Z,21.30
2018-05-13T13:42:10.339Z,20.90
2018-05-13T13:44:36.323Z,20.90
2018-05-13T13:47:02.655Z,21.00
2018-05-13T13:49:29.359Z,21.10
2018-05-13T13:51:55.336Z,21.10
2018-05-13T13:54:22.096Z,21.10
2018-05-13T13:56:48.823Z,21.20
2018-05-13T13:59:14.788Z,21.20
2018-05-13T14:01:41.820Z,21.00
2018-05-13T14:04:07.815Z,20.90
2018-05-13T14:06:33.826Z,20.70
2018-05-13T14:09:00.577Z,20.40
2018-05-13T14:11:27.307Z,20.60
2018-05-13T14:13:53.271Z,20.50
2018-05-13T14:16:19.268Z,20.70
2018-05-13T14:18:45.347Z,20.80
2018-05-13T14:21:11.310Z,20.50
2018-05-13T14:23:37.404Z,20.60
2018-05-13T14:26:03.509Z,20.90
2018-05-13T14:28:29.483Z,21.20
2018-05-13T14:30:56.227Z,21.40
2018-05-13T14:33:22.932Z,21.50
2018-05-13T14:35:48.895Z,21.60
2018-05-13T14:38:14.909Z,21.70
2018-05-13T14:40:40.900Z,21.90
2018-05-13T14:43:07.679Z,21.00
2018-05-13T14:45:33.793Z,21.00
2018-05-13T14:48:00.576Z,21.20
2018-05-13T14:50:26.540Z,21.20
2018-05-13T14:52:52.560Z,21.30
2018-05-13T14:55:18.527Z,21.00
2018-05-13T14:57:44.492Z,21.10
2018-05-13T15:00:10.706Z,21.60
2018-05-13T15:02:36.713Z,21.50
2018-05-13T15:05:02.872Z,21.60
2018-05-13T15:07:29.827Z,21.40
2018-05-13T15:09:55.793Z,21.50
2018-05-13T15:12:22.508Z,21.20
2018-05-13T15:14:48.831Z,21.20
2018-05-13T15:17:14.795Z,21.20
2018-05-13T15:19:40.755Z,21.00
2018-05-13T15:22:07.531Z,21.20
2018-05-13T15:24:33.637Z,21.20
2018-05-13T15:27:00.367Z,21.40
2018-05-13T15:29:26.389Z,21.40
2018-05-13T15:31:52.401Z,21.60
2018-05-13T15:34:18.363Z,21.70
2018-05-13T15:36:44.368Z,21.90
2018-05-13T15:39:10.329Z,21.60
2018-05-13T15:41:37.343Z,21.40
2018-05-13T15:44:04.286Z,20.80
2018-05-13T15:46:31.011Z,21.10
2018-05-13T15:48:57.059Z,21.10
2018-05-13T15:51:23.056Z,21.10
2018-05-13T15:53:49.020Z,20.80
2018-05-13T15:56:14.985Z,20.70
2018-05-13T15:58:41.731Z,20.50
2018-05-13T16:01:07.717Z,20.50
2018-05-13T16:03:33.749Z,20.20
2018-05-13T16:05:59.923Z,20.40
2018-05-13T16:08:25.895Z,20.50
2018-05-13T16:10:52.608Z,20.20
2018-05-13T16:13:18.597Z,20.10
2018-05-13T16:15:44.576Z,19.80
2018-05-13T16:18:10.572Z,19.90
2018-05-13T16:20:36.786Z,19.90
2018-05-13T16:23:03.582Z,19.40
2018-05-13T16:25:29.567Z,19.40
2018-05-13T16:27:55.555Z,19.30
2018-05-13T16:30:21.571Z,19.30
2018-05-13T16:32:47.496Z,19.50
2018-05-13T16:35:14.719Z,19.20
2018-05-13T16:37:40.692Z,19.20
2018-05-13T16:40:07.459Z,19.10
2018-05-13T16:42:33.477Z,19.10
2018-05-13T16:45:00.189Z,18.80
2018-05-13T16:47:26.151Z,18.80
2018-05-13T16:49:52.891Z,18.80
2018-05-13T16:52:19.099Z,18.70
2018-05-13T16:54:45.059Z,18.40
2018-05-13T16:57:11.116Z,18.30
2018-05-13T16:59:37.104Z,18.10
2018-05-13T17:02:03.160Z,18.20
2018-05-13T17:04:29.171Z,18.00
2018-05-13T17:06:55.131Z,17.90
2018-05-13T17:09:21.152Z,17.80
2018-05-13T17:11:47.869Z,17.20
2018-05-13T17:14:14.575Z,17.20
2018-05-13T17:16:40.539Z,17.20
2018-05-13T17:19:07.371Z,17.20
2018-05-13T17:21:33.402Z,17.10
2018-05-13T17:23:59.375Z,16.80
2018-05-13T17:26:26.083Z,16.60
2018-05-13T17:28:52.042Z,16.50
2018-05-13T17:31:18.012Z,16.60
2018-05-13T17:33:44.743Z,16.60
2018-05-13T17:36:10.711Z,16.60
2018-05-13T17:38:36.684Z,16.60
2018-05-13T17:41:02.886Z,16.60
2018-05-13T17:43:28.895Z,16.40
2018-05-13T17:46:02.595Z,16.30
2018-05-13T17:48:28.567Z,16.30
2018-05-13T17:50:54.704Z,16.20
2018-05-13T17:53:20.809Z,16.30
2018-05-13T17:55:46.788Z,16.10
2018-05-13T17:58:12.769Z,16.00
2018-05-13T18:00:38.757Z,16.00
2018-05-13T18:03:04.898Z,15.80
2018-05-13T18:05:30.756Z,15.90
2018-05-13T18:07:56.724Z,15.90
2018-05-13T18:10:22.699Z,15.70
2018-05-13T18:12:48.655Z,15.80
2018-05-13T18:15:15.443Z,15.80
2018-05-13T18:17:41.403Z,15.70
2018-05-13T18:20:08.108Z,15.70
2018-05-13T18:22:34.148Z,15.70
2018-05-13T18:25:00.111Z,15.60
2018-05-13T18:27:26.079Z,15.50
2018-05-13T18:29:52.095Z,15.60
2018-05-13T18:32:18.798Z,15.50
2018-05-13T18:34:44.767Z,15.50
2018-05-13T18:37:10.745Z,15.50
2018-05-13T18:39:36.765Z,15.50
2018-05-13T18:42:03.503Z,15.60
2018-05-13T18:44:30.236Z,15.60
2018-05-13T18:46:56.206Z,15.50
2018-05-13T18:49:22.906Z,15.50
2018-05-13T18:54:41.006Z,15.50
2018-05-13T18:57:06.981Z,15.50
2018-05-13T18:59:33.713Z,15.50
2018-05-13T19:02:00.726Z,15.50
2018-05-13T19:04:26.677Z,15.50
2018-05-13T19:06:52.624Z,15.40
2018-05-13T19:09:18.595Z,15.50
2018-05-13T19:11:45.296Z,15.50
2018-05-13T19:14:11.265Z,15.40
2018-05-13T19:16:37.264Z,15.50
2018-05-13T19:19:03.327Z,15.50
2018-05-13T19:21:29.223Z,15.50
2018-05-13T19:23:55.215Z,15.50
2018-05-13T19:26:21.910Z,15.50
2018-05-13T19:28:47.885Z,15.50
2018-05-13T19:31:14.005Z,15.50
2018-05-13T19:33:39.952Z,15.50
2018-05-13T19:36:05.934Z,15.60
2018-05-13T19:38:31.926Z,15.60
2018-05-13T19:40:57.887Z,15.70
2018-05-13T19:43:24.655Z,15.50
2018-05-13T19:45:50.651Z,15.50
2018-05-13T19:48:16.605Z,15.60
2018-05-13T19:50:43.298Z,15.60
2018-05-13T19:53:09.465Z,15.50
2018-05-13T19:55:35.483Z,15.60
2018-05-13T19:58:01.486Z,15.60
2018-05-13T20:00:27.858Z,15.50
2018-05-13T20:02:54.150Z,15.60
2018-05-13T20:05:20.078Z,15.60
2018-05-13T20:07:46.822Z,15.60
2018-05-13T20:10:13.186Z,15.60
2018-05-13T20:12:39.148Z,15.70
2018-05-13T20:15:05.178Z,15.80
2018-05-13T20:17:31.134Z,15.80
2018-05-13T20:19:57.092Z,15.70
2018-05-13T20:22:23.107Z,15.70
2018-05-13T20:24:49.074Z,15.80
2018-05-13T20:27:15.029Z,15.90
2018-05-13T20:29:41.035Z,15.80
2018-05-13T20:32:07.014Z,15.80
2018-05-13T20:34:33.735Z,15.80
2018-05-13T20:36:59.718Z,15.80
2018-05-13T20:39:25.883Z,15.80
2018-05-13T20:41:51.842Z,15.80
2018-05-13T20:44:17.887Z,15.80
2018-05-13T20:46:43.834Z,15.70
2018-05-13T20:49:10.036Z,15.70
2018-05-13T20:51:36.077Z,15.70
2018-05-13T20:54:02.075Z,15.60
2018-05-13T20:56:28.774Z,15.50
2018-05-13T20:58:54.769Z,15.50
2018-05-13T21:01:20.720Z,15.40
2018-05-13T21:03:46.673Z,15.30
2018-05-13T21:06:12.816Z,15.30
2018-05-13T21:08:38.773Z,15.30
2018-05-13T21:11:04.769Z,15.30
2018-05-13T21:13:31.139Z,15.30
2018-05-13T21:15:57.148Z,15.40
2018-05-13T21:18:23.044Z,15.20
2018-05-13T21:20:50.139Z,15.20
2018-05-13T21:23:16.092Z,15.20
2018-05-13T21:25:42.050Z,15.30
2018-05-13T21:28:08.253Z,15.40
2018-05-13T21:30:34.228Z,15.40
2018-05-13T21:33:00.179Z,15.50
2018-05-13T21:35:27.290Z,15.60
2018-05-13T21:37:53.242Z,15.60
2018-05-13T21:40:19.198Z,15.40
2018-05-13T21:42:45.162Z,15.40
2018-05-13T21:45:11.125Z,15.30
2018-05-13T21:47:37.132Z,15.30
2018-05-13T21:50:03.982Z,15.30
2018-05-13T21:52:37.801Z,15.30
2018-05-13T21:55:04.548Z,15.40
2018-05-13T21:57:31.237Z,15.50
2018-05-13T21:59:57.194Z,15.50
2018-05-13T22:02:23.333Z,15.50
2018-05-13T22:04:56.533Z,15.30
2018-05-13T22:07:22.522Z,15.20
2018-05-13T22:09:48.441Z,15.20
2018-05-13T22:12:14.382Z,15.30
2018-05-13T22:14:41.093Z,15.10
2018-05-13T22:17:07.064Z,15.10
2018-05-13T22:19:33.019Z,15.10
2018-05-13T22:21:59.613Z,15.10
2018-05-13T22:24:25.578Z,15.10
2018-05-13T22:26:51.544Z,15.20
2018-05-13T22:29:17.630Z,15.20
2018-05-13T22:31:43.590Z,15.20
2018-05-13T22:34:09.544Z,15.20
2018-05-13T22:36:36.422Z,15.20
2018-05-13T22:39:02.358Z,15.20
2018-05-13T22:41:28.307Z,15.10
2018-05-13T22:43:54.281Z,14.90
2018-05-13T22:46:20.270Z,14.90
2018-05-13T22:48:46.218Z,14.90
2018-05-13T22:51:12.214Z,14.80
2018-05-13T22:53:38.923Z,14.80
2018-05-13T22:56:04.910Z,14.90
2018-05-13T22:58:30.919Z,14.80
2018-05-13T23:00:56.822Z,14.80
2018-05-13T23:03:23.001Z,14.80
2018-05-13T23:05:50.334Z,14.90
2018-05-13T23:08:16.281Z,14.80
2018-05-13T23:10:42.977Z,14.80
2018-05-13T23:13:08.957Z,14.70
2018-05-13T23:15:34.937Z,14.90
2018-05-13T23:18:00.886Z,15.00
2018-05-13T23:20:26.857Z,15.00
2018-05-13T23:22:52.790Z,15.10
2018-05-13T23:25:18.737Z,15.00
2018-05-13T23:27:44.704Z,14.80
2018-05-13T23:30:11.413Z,14.70
2018-05-13T23:32:37.384Z,14.70
2018-05-13T23:35:04.170Z,14.70
2018-05-13T23:37:30.109Z,14.60
2018-05-13T23:39:56.148Z,14.90
2018-05-13T23:42:22.039Z,14.90
2018-05-13T23:44:48.735Z,15.10
2018-05-13T23:47:14.710Z,15.10
2018-05-13T23:49:41.347Z,15.10
2018-05-13T23:52:07.322Z,15.10
2018-05-13T23:54:34.061Z,15.30
2018-05-13T23:57:00.174Z,15.20
2018-05-13T23:59:26.122Z,15.30
